Hermon, Illinois
Current Conditions -  °F | °C
As of 6:35 AM on Thursday 23 Oct 2014 (Local Time) from KGBG Reporting Station
Haze Haze  
Wind Chill: 37°   Ceiling: Unl
Heat Index: 41°   Visibility: 3mi
Dew Point: 37°   Wind: 6mph
Humidity: 86%   Direction: 130°SE
Pressure: 30.16"   Gusts: NA
Location:  40.7772°N, 90.2082°W
Report Text: KGBG 231135Z AUTO 13005KT 3SM BR CLR 05/03 A3016 RMK AO2 T00510029
Loading
Personal Weather Stations






























Interactive Weather Map
Tropical Storm Tracking
New forecast layout! Learn more

10-Day Weather Forecast

Advertisements
Track Severe Weather on mobile